Time;durP1;ratioP1;P1;durP2;ratioP2;P2;SDS_P1;SDS_P2;PMS_P1;PMS_P2;Temp;Humidity;BMP_temperature;BMP_pressure;BME280_temperature;BME280_humidity;BME280_pressure;Samples;Min_cycle;Max_cycle;Signal;HPM_P1;HPM_P2
2023/07/26 00:02:00;;;;;;;0.00;0.00;;;;;;;11.77;nan;100091.19;4952073;29;20038;-75
2023/07/26 00:04:25;;;;;;;0.00;0.00;;;;;;;;;;4954516;28;20034;-75
2023/07/26 00:06:50;;;;;;;0.00;0.00;;;;;;;;;;4973816;28;20027;-75
2023/07/26 00:09:16;;;;;;;0.10;0.10;;;;;;;11.48;nan;100100.13;4947379;29;20041;-74
2023/07/26 00:11:43;;;;;;;0.00;0.00;;;;;;;11.39;nan;100085.34;4952295;28;20061;-76
2023/07/26 00:14:09;;;;;;;0.00;0.00;;;;;;;11.38;nan;100108.38;4945012;28;20050;-74
2023/07/26 00:16:37;;;;;;;0.00;0.00;;;;;;;11.38;nan;100111.09;4960542;28;20027;-74
2023/07/26 00:19:02;;;;;;;0.00;0.00;;;;;;;11.39;nan;100102.59;4951280;28;20042;-75
2023/07/26 00:21:30;;;;;;;0.00;0.00;;;;;;;11.37;nan;100109.47;4956342;28;20030;-75
2023/07/26 00:23:56;;;;;;;0.00;0.00;;;;;;;11.35;nan;100113.28;4965901;28;20051;-74
2023/07/26 00:26:23;;;;;;;0.00;0.00;;;;;;;11.30;nan;100115.22;4950988;28;20031;-74
2023/07/26 00:28:53;;;;;;;0.00;0.00;;;;;;;11.21;nan;100116.88;4965933;28;20030;-74
2023/07/26 00:31:20;;;;;;;0.00;0.00;;;;;;;;;;4926469;28;20134;-75
2023/07/26 00:33:46;;;;;;;0.00;0.00;;;;;;;11.13;nan;100105.41;4967104;28;20035;-76
2023/07/26 00:36:11;;;;;;;0.10;0.10;;;;;;;11.11;nan;100093.09;4959734;28;20038;-75
2023/07/26 00:38:37;;;;;;;0.00;0.00;;;;;;;11.08;nan;100115.53;4927639;29;20039;-74
2023/07/26 00:41:02;;;;;;;0.10;0.10;;;;;;;11.06;nan;100121.31;4960896;28;20074;-76
2023/07/26 00:43:28;;;;;;;0.00;0.00;;;;;;;11.08;nan;100107.34;4963666;28;20069;-76
2023/07/26 00:45:53;;;;;;;0.00;0.00;;;;;;;11.04;nan;100093.41;4953961;28;20035;-76
2023/07/26 00:48:19;;;;;;;0.00;0.00;;;;;;;11.03;nan;100099.16;4946248;29;20035;-74
2023/07/26 00:50:47;;;;;;;0.00;0.00;;;;;;;11.03;nan;100107.38;4944388;28;20413;-75
2023/07/26 00:53:14;;;;;;;0.00;0.00;;;;;;;11.00;nan;100128.69;4952096;28;20091;-75
2023/07/26 00:55:39;;;;;;;0.00;0.00;;;;;;;11.00;nan;100123.22;4961582;28;20027;-75
2023/07/26 00:58:04;;;;;;;0.00;0.00;;;;;;;;;;4932166;28;20035;-75
2023/07/26 01:00:30;;;;;;;0.00;0.00;;;;;;;10.96;nan;100108.44;4949831;28;20051;-73
2023/07/26 01:02:56;;;;;;;0.00;0.00;;;;;;;10.85;nan;100103.28;4942429;28;20034;-74
2023/07/26 01:05:27;;;;;;;0.00;0.00;;;;;;;10.80;nan;100109.56;4937141;28;20082;-76
2023/07/26 01:08:17;;;;;;;0.00;0.00;;;;;;;10.71;nan;100109.31;4948446;28;20046;-76
2023/07/26 01:10:50;;;;;;;0.00;0.00;;;;;;;10.67;nan;100091.00;4962684;28;20023;-75
2023/07/26 01:13:48;;;;;;;0.00;0.00;;;;;;;10.67;nan;100123.81;4964369;28;20105;-75
2023/07/26 01:16:13;;;;;;;0.00;0.00;;;;;;;;;;4960754;28;20042;-75
2023/07/26 01:18:39;;;;;;;0.00;0.00;;;;;;;10.57;nan;100111.78;4955094;28;20028;-76
2023/07/26 01:21:07;;;;;;;0.00;0.00;;;;;;;10.49;nan;100106.84;4937127;28;20031;-75
2023/07/26 01:23:34;;;;;;;0.00;0.00;;;;;;;;;;4940650;28;20202;-74
2023/07/26 01:26:00;;;;;;;0.00;0.00;;;;;;;10.44;nan;100109.56;4933031;29;20466;-74
2023/07/26 01:28:26;;;;;;;0.00;0.00;;;;;;;10.40;nan;100100.31;4964480;28;20042;-73
2023/07/26 01:30:51;;;;;;;0.00;0.00;;;;;;;;;;4931816;29;20110;-76
2023/07/26 01:33:20;;;;;;;0.00;0.00;;;;;;;10.53;nan;100102.50;4943219;28;20525;-73
2023/07/26 01:35:50;;;;;;;0.00;0.00;;;;;;;10.53;nan;100102.50;4955248;28;20046;-74
2023/07/26 01:38:19;;;;;;;0.00;0.00;;;;;;;10.51;nan;100115.59;4959826;28;20028;-74
2023/07/26 01:40:47;;;;;;;0.00;0.00;;;;;;;10.46;nan;100113.69;4961116;28;20377;-77
2023/07/26 01:43:12;;;;;;;0.00;0.00;;;;;;;10.37;nan;100103.59;4969024;28;20053;-75
2023/07/26 01:45:38;;;;;;;0.00;0.00;;;;;;;10.33;nan;100108.72;4952442;28;20462;-73
2023/07/26 01:48:04;;;;;;;0.00;0.00;;;;;;;10.25;nan;100101.91;4929457;28;20730;-74
2023/07/26 01:50:29;;;;;;;0.00;0.00;;;;;;;10.21;nan;100110.91;4935400;28;20027;-75
2023/07/26 01:52:54;;;;;;;0.00;0.00;;;;;;;;;;4938545;28;20034;-75
2023/07/26 01:55:20;;;;;;;0.00;0.00;;;;;;;10.19;nan;100097.53;4960882;28;20031;-73
2023/07/26 01:57:45;;;;;;;0.00;0.00;;;;;;;10.16;nan;100106.25;4947566;28;20473;-75
2023/07/26 02:00:11;;;;;;;0.00;0.00;;;;;;;;;;4945018;29;20142;-75
2023/07/26 02:02:37;;;;;;;0.00;0.00;;;;;;;10.05;nan;100090.94;4945997;28;20023;-76
2023/07/26 02:05:02;;;;;;;0.00;0.00;;;;;;;;;;4943456;29;20126;-75
2023/07/26 02:07:28;;;;;;;0.00;0.00;;;;;;;;;;4951122;28;20019;-76
2023/07/26 02:09:53;;;;;;;0.00;0.00;;;;;;;9.96;nan;100023.19;4925823;28;20121;-76
2023/07/26 02:12:19;;;;;;;0.00;0.00;;;;;;;;;;4948783;28;20027;-74
2023/07/26 02:14:44;;;;;;;0.00;0.00;;;;;;;9.94;nan;100080.00;4935367;28;20385;-73
2023/07/26 02:17:09;;;;;;;0.00;0.00;;;;;;;;;;4933761;28;21419;-74
2023/07/26 02:19:35;;;;;;;0.10;0.10;;;;;;;;;;4950412;28;20084;-74
2023/07/26 02:22:00;;;;;;;0.03;0.03;;;;;;;9.88;nan;100051.00;4925661;28;20035;-74
2023/07/26 02:24:26;;;;;;;0.00;0.00;;;;;;;9.84;nan;100084.59;4948160;28;20796;-74
2023/07/26 02:26:51;;;;;;;0.00;0.00;;;;;;;9.79;nan;100066.28;4923150;29;20028;-74
2023/07/26 02:29:17;;;;;;;0.00;0.00;;;;;;;9.73;nan;100067.38;4948216;28;20026;-74
2023/07/26 02:31:42;;;;;;;0.00;0.00;;;;;;;9.69;nan;100077.19;4941220;29;20121;-75
2023/07/26 02:34:07;;;;;;;0.00;0.00;;;;;;;9.66;nan;100072.28;4927463;28;20031;-75
2023/07/26 02:36:33;;;;;;;0.00;0.00;;;;;;;;;;4942331;29;20036;-75
2023/07/26 02:38:58;;;;;;;0.00;0.00;;;;;;;;;;4928909;28;20497;-74
2023/07/26 02:41:24;;;;;;;0.00;0.00;;;;;;;9.63;nan;100078.28;4963030;28;20031;-74
2023/07/26 02:43:49;;;;;;;0.00;0.00;;;;;;;9.58;nan;100074.44;4948783;28;20089;-75
2023/07/26 02:46:14;;;;;;;0.00;0.00;;;;;;;9.54;nan;100080.69;4943718;28;20105;-74
2023/07/26 02:48:40;;;;;;;0.00;0.00;;;;;;;9.47;nan;100063.75;4944841;28;20117;-75
2023/07/26 02:51:08;;;;;;;0.00;0.00;;;;;;;9.42;nan;100072.75;4957401;28;20035;-76
2023/07/26 02:53:33;;;;;;;0.00;0.00;;;;;;;9.36;nan;100071.91;4941196;28;20405;-73
2023/07/26 02:56:01;;;;;;;0.00;0.00;;;;;;;9.32;nan;100064.50;4950125;28;20094;-74
2023/07/26 02:58:26;;;;;;;0.00;0.00;;;;;;;9.32;nan;100061.78;4932744;28;20126;-75
2023/07/26 03:00:55;;;;;;;0.00;0.00;;;;;;;9.28;nan;100087.97;4931500;28;20078;-75
2023/07/26 03:03:20;;;;;;;0.00;0.00;;;;;;;;;;4947180;28;20026;-74
2023/07/26 03:05:45;;;;;;;0.00;0.00;;;;;;;9.38;nan;100082.53;4964354;28;20102;-75
2023/07/26 03:08:11;;;;;;;0.00;0.00;;;;;;;9.43;nan;100091.59;4942889;28;20027;-74
2023/07/26 03:10:36;;;;;;;0.00;0.00;;;;;;;9.51;nan;100092.97;4948484;28;20027;-74
2023/07/26 03:13:02;;;;;;;0.00;0.00;;;;;;;9.57;nan;100091.09;4962795;28;20034;-74
2023/07/26 03:15:27;;;;;;;0.00;0.00;;;;;;;9.64;nan;100090.81;4930500;28;20023;-74
2023/07/26 03:17:53;;;;;;;0.00;0.00;;;;;;;;;;4947975;29;20046;-74
2023/07/26 03:20:18;;;;;;;0.00;0.00;;;;;;;9.67;nan;100087.56;4954130;28;20470;-75
2023/07/26 03:22:43;;;;;;;0.00;0.00;;;;;;;;;;4949571;28;20065;-74
2023/07/26 03:25:08;;;;;;;0.00;0.00;;;;;;;;;;4942939;29;20118;-75
2023/07/26 03:27:34;;;;;;;0.00;0.00;;;;;;;9.49;nan;100092.44;4931562;29;20032;-76
2023/07/26 03:30:00;;;;;;;0.00;0.00;;;;;;;9.35;nan;100104.91;4940159;28;20085;-75
2023/07/26 03:32:25;;;;;;;0.00;0.00;;;;;;;;;;4954563;28;20031;-76
2023/07/26 03:34:50;;;;;;;0.00;0.00;;;;;;;;;;4953698;28;20078;-75
2023/07/26 03:37:16;;;;;;;0.00;0.00;;;;;;;9.32;nan;100098.06;4964917;28;20023;-75
2023/07/26 03:39:41;;;;;;;0.00;0.00;;;;;;;9.39;nan;100078.75;4954283;28;20043;-74
2023/07/26 03:42:07;;;;;;;0.00;0.00;;;;;;;9.37;nan;100091.81;4936506;28;20027;-74
2023/07/26 03:44:33;;;;;;;0.00;0.00;;;;;;;9.43;nan;100093.47;4967072;28;20058;-74
2023/07/26 03:46:58;;;;;;;0.00;0.00;;;;;;;9.47;nan;100089.13;4948325;28;20484;-74
2023/07/26 03:49:23;;;;;;;0.00;0.00;;;;;;;;;;4933680;29;20493;-72
2023/07/26 03:51:49;;;;;;;0.00;0.00;;;;;;;;;;4938810;28;20115;-74
2023/07/26 03:54:14;;;;;;;0.00;0.00;;;;;;;;;;4922993;28;20035;-73
2023/07/26 03:56:39;;;;;;;0.00;0.00;;;;;;;9.48;nan;100076.31;4942517;28;20090;-74
2023/07/26 03:59:05;;;;;;;0.00;0.00;;;;;;;9.43;nan;100077.94;4935890;28;20085;-73
2023/07/26 04:01:30;;;;;;;0.00;0.00;;;;;;;9.39;nan;100078.75;4936944;28;20065;-74
2023/07/26 04:03:56;;;;;;;0.00;0.00;;;;;;;9.38;nan;100093.47;4941462;28;20508;-75
2023/07/26 04:06:21;;;;;;;0.00;0.00;;;;;;;9.37;nan;100097.28;4946309;29;20556;-74
2023/07/26 04:08:47;;;;;;;0.00;0.00;;;;;;;9.30;nan;100086.63;4930481;28;20039;-73
2023/07/26 04:11:12;;;;;;;0.00;0.00;;;;;;;9.23;nan;100078.66;4964886;28;20046;-73
2023/07/26 04:13:37;;;;;;;0.00;0.00;;;;;;;9.16;nan;100066.34;4946355;29;20027;-74
2023/07/26 04:16:17;;;;;;;0.00;0.00;;;;;;;9.11;nan;100088.13;4916642;28;20026;-73
2023/07/26 04:18:42;;;;;;;0.00;0.00;;;;;;;;;;4961759;28;20082;-74
2023/07/26 04:21:16;;;;;;;0.03;0.03;;;;;;;9.06;nan;100083.47;4934115;28;20031;-74
2023/07/26 04:23:43;;;;;;;0.00;0.00;;;;;;;9.03;nan;100075.81;4942691;28;20442;-74
2023/07/26 04:26:08;;;;;;;0.00;0.00;;;;;;;9.05;nan;100092.75;4948067;28;20470;-74
2023/07/26 04:28:34;;;;;;;0.00;0.00;;;;;;;9.08;nan;100086.75;4965701;28;20039;-75
2023/07/26 04:31:00;;;;;;;0.00;0.00;;;;;;;9.02;nan;100057.81;4950704;29;20039;-75
2023/07/26 04:33:25;;;;;;;0.00;0.00;;;;;;;9.10;nan;100076.41;4921619;28;20539;-73
2023/07/26 04:35:51;;;;;;;0.00;0.00;;;;;;;9.09;nan;100093.84;4965195;28;20027;-74
2023/07/26 04:38:18;;;;;;;0.00;0.00;;;;;;;9.12;nan;100097.97;4931840;28;20031;-73
2023/07/26 04:40:47;;;;;;;0.10;0.10;;;;;;;9.12;nan;100098.78;4933119;28;20027;-75
2023/07/26 04:43:16;;;;;;;0.00;0.00;;;;;;;9.13;nan;100091.44;4944628;28;20038;-74
2023/07/26 04:45:42;;;;;;;0.00;0.00;;;;;;;;;;4927051;29;20031;-72
2023/07/26 04:48:07;;;;;;;0.00;0.00;;;;;;;9.18;nan;100105.09;4944880;28;20027;-75
2023/07/26 04:50:33;;;;;;;0.00;0.00;;;;;;;9.14;nan;100098.50;4962823;28;20023;-74
2023/07/26 04:52:58;;;;;;;0.00;0.00;;;;;;;;;;4952357;28;20031;-73
2023/07/26 04:55:23;;;;;;;0.00;0.00;;;;;;;;;;4928026;28;20057;-75
2023/07/26 04:57:49;;;;;;;0.00;0.00;;;;;;;9.19;nan;100095.81;4948598;28;21881;-73
2023/07/26 05:00:14;;;;;;;0.00;0.00;;;;;;;9.20;nan;100102.91;4953791;28;20031;-73
2023/07/26 05:02:40;;;;;;;0.00;0.00;;;;;;;9.21;nan;100127.22;4941939;28;20033;-74
2023/07/26 05:05:05;;;;;;;0.00;0.00;;;;;;;9.23;nan;100111.41;4950347;28;20062;-75
2023/07/26 05:07:31;;;;;;;0.00;0.00;;;;;;;9.24;nan;100099.41;4959870;28;20043;-75
2023/07/26 05:09:57;;;;;;;0.00;0.00;;;;;;;9.25;nan;100090.13;4946834;29;20054;-74
2023/07/26 05:12:23;;;;;;;0.00;0.00;;;;;;;8.67;nan;99980.19;4952575;28;20034;-75
2023/07/26 05:14:48;;;;;;;0.00;0.00;;;;;;;9.30;nan;100092.06;4920961;29;20023;-75
2023/07/26 05:17:13;;;;;;;0.00;0.00;;;;;;;;;;4945960;28;20024;-75
2023/07/26 05:19:39;;;;;;;0.00;0.00;;;;;;;9.45;nan;100088.59;4947037;28;20035;-75
2023/07/26 05:22:04;;;;;;;0.00;0.00;;;;;;;;;;4940608;28;20680;-74
2023/07/26 05:24:30;;;;;;;0.00;0.00;;;;;;;9.60;nan;100085.91;4929314;28;20031;-73
2023/07/26 05:26:55;;;;;;;0.00;0.00;;;;;;;9.36;nan;100011.03;4936698;28;20497;-74
2023/07/26 05:29:21;;;;;;;0.00;0.00;;;;;;;9.83;nan;100099.34;4938345;28;20061;-74
2023/07/26 05:31:46;;;;;;;0.00;0.00;;;;;;;8.90;nan;99908.84;4945879;28;20109;-75
2023/07/26 05:34:12;;;;;;;0.00;0.00;;;;;;;10.09;nan;100092.84;4949706;28;20239;-73
2023/07/26 05:36:37;;;;;;;0.00;0.00;;;;;;;10.23;nan;100098.59;4961962;28;22255;-74
2023/07/26 05:39:03;;;;;;;0.00;0.00;;;;;;;10.37;nan;100088.00;4938660;28;20439;-75
2023/07/26 05:41:31;;;;;;;0.00;0.00;;;;;;;10.54;nan;100108.75;4939252;28;20782;-74
2023/07/26 05:43:58;;;;;;;0.00;0.00;;;;;;;10.67;nan;100112.88;4944482;28;20047;-73
2023/07/26 05:46:23;;;;;;;0.00;0.00;;;;;;;;;;4951783;28;20038;-75
2023/07/26 05:48:49;;;;;;;0.00;0.00;;;;;;;10.95;nan;100109.56;4921299;29;20114;-74
2023/07/26 05:51:14;;;;;;;0.00;0.00;;;;;;;11.11;nan;100099.41;4943521;29;20034;-73
2023/07/26 05:53:39;;;;;;;0.00;0.00;;;;;;;11.21;nan;100114.16;4930823;28;20384;-72
2023/07/26 05:56:05;;;;;;;0.00;0.00;;;;;;;11.35;nan;100124.22;4927312;29;20146;-73
2023/07/26 05:58:30;;;;;;;0.00;0.00;;;;;;;11.48;nan;100089.97;4959131;28;20031;-72
2023/07/26 06:00:56;;;;;;;0.00;0.00;;;;;;;;;;4911988;28;20046;-73
2023/07/26 06:03:26;;;;;;;0.00;0.00;;;;;;;11.88;nan;100117.44;4956206;28;20139;-74
2023/07/26 06:05:52;;;;;;;0.00;0.00;;;;;;;12.09;nan;100118.19;4944342;29;20039;-77
2023/07/26 06:08:19;;;;;;;0.00;0.00;;;;;;;12.25;nan;100124.41;4950424;28;20043;-73
2023/07/26 06:10:44;;;;;;;0.00;0.00;;;;;;;12.39;nan;100114.41;4957079;28;20607;-72
2023/07/26 06:13:12;;;;;;;0.00;0.00;;;;;;;12.62;nan;100106.56;4942214;28;20106;-73
2023/07/26 06:15:40;;;;;;;0.00;0.00;;;;;;;12.81;nan;100100.34;4943172;28;20027;-74
2023/07/26 06:18:05;;;;;;;0.00;0.00;;;;;;;13.00;nan;100125.97;4957473;28;20401;-73
2023/07/26 06:20:31;;;;;;;0.00;0.00;;;;;;;13.25;nan;100124.06;4955006;28;20050;-74
2023/07/26 06:22:56;;;;;;;0.00;0.00;;;;;;;;;;4943402;28;20738;-74
2023/07/26 06:25:21;;;;;;;0.00;0.00;;;;;;;13.65;nan;100110.97;4933052;29;20027;-72
2023/07/26 06:27:47;;;;;;;0.00;0.00;;;;;;;;;;4919751;28;20027;-72
2023/07/26 06:30:14;;;;;;;0.00;0.00;;;;;;;14.26;nan;100114.00;4929590;28;20027;-71
2023/07/26 06:32:40;;;;;;;0.00;0.00;;;;;;;14.65;nan;100132.13;4951319;28;20043;-74
2023/07/26 06:35:06;;;;;;;0.00;0.00;;;;;;;14.92;nan;100114.03;4934803;28;20148;-74
2023/07/26 06:37:32;;;;;;;0.00;0.00;;;;;;;15.22;nan;100117.38;4942590;29;20117;-74
2023/07/26 06:39:57;;;;;;;0.00;0.00;;;;;;;;;;4938502;28;20039;-73
2023/07/26 06:42:22;;;;;;;0.00;0.00;;;;;;;;;;4932746;28;20031;-74
2023/07/26 06:44:47;;;;;;;0.00;0.00;;;;;;;15.55;nan;100120.84;4945661;28;20118;-74
2023/07/26 06:47:13;;;;;;;0.00;0.00;;;;;;;;;;4940195;29;20054;-74
2023/07/26 06:49:38;;;;;;;0.00;0.00;;;;;;;15.43;nan;100118.56;4934555;29;20066;-75
2023/07/26 06:52:04;;;;;;;0.00;0.00;;;;;;;15.35;nan;100116.56;4918980;28;20043;-74
2023/07/26 06:54:30;;;;;;;0.00;0.00;;;;;;;15.19;nan;100114.09;4930196;29;20047;-74
2023/07/26 06:56:55;;;;;;;0.00;0.00;;;;;;;15.03;nan;100137.53;4937002;28;20171;-73
2023/07/26 06:59:21;;;;;;;0.00;0.00;;;;;;;14.98;nan;100129.34;4943434;28;20429;-73
2023/07/26 07:01:47;;;;;;;0.00;0.00;;;;;;;14.92;nan;100136.06;4941469;28;20031;-74
2023/07/26 07:04:13;;;;;;;0.00;0.00;;;;;;;14.84;nan;100135.63;4957239;28;20027;-72
2023/07/26 07:06:38;;;;;;;0.00;0.00;;;;;;;14.77;nan;100137.97;4936711;28;20081;-73
2023/07/26 07:09:04;;;;;;;0.00;0.00;;;;;;;14.71;nan;100141.13;4930215;29;20148;-74
2023/07/26 07:11:29;;;;;;;0.00;0.00;;;;;;;14.64;nan;100147.00;4948842;28;20023;-75
2023/07/26 07:13:56;;;;;;;0.00;0.00;;;;;;;14.68;nan;100148.03;4965010;28;20035;-74
2023/07/26 07:16:25;;;;;;;0.00;0.00;;;;;;;14.71;nan;100141.94;4948840;29;20054;-74
2023/07/26 07:18:50;;;;;;;0.00;0.00;;;;;;;;;;4932225;28;20109;-75
2023/07/26 07:21:15;;;;;;;0.00;0.00;;;;;;;14.70;nan;100145.78;4949017;28;20454;-73
2023/07/26 07:23:41;;;;;;;0.00;0.00;;;;;;;14.75;nan;100148.47;4969409;28;20057;-74
2023/07/26 07:26:06;;;;;;;0.00;0.00;;;;;;;;;;4947640;28;20034;-73
2023/07/26 07:28:32;;;;;;;0.00;0.00;;;;;;;14.91;nan;100150.94;4937691;28;20024;-73
2023/07/26 07:30:57;;;;;;;0.00;0.00;;;;;;;15.03;nan;100133.97;4953833;28;20058;-74
2023/07/26 07:33:22;;;;;;;0.00;0.00;;;;;;;15.18;nan;100139.97;4944457;28;20031;-73
2023/07/26 07:35:48;;;;;;;0.00;0.00;;;;;;;15.30;nan;100135.91;4952825;28;20504;-78
2023/07/26 07:38:13;;;;;;;0.00;0.00;;;;;;;15.39;nan;100134.13;4935876;28;20027;-75
2023/07/26 07:40:39;;;;;;;0.00;0.00;;;;;;;15.41;nan;100131.06;4924683;28;20034;-75
2023/07/26 07:43:04;;;;;;;0.00;0.00;;;;;;;;;;4965200;28;20105;-73
2023/07/26 07:45:30;;;;;;;0.00;0.00;;;;;;;15.47;nan;100085.72;4959790;28;20031;-73
2023/07/26 07:47:55;;;;;;;0.00;0.00;;;;;;;15.76;nan;100132.25;4956376;28;20027;-75
2023/07/26 07:50:21;;;;;;;0.00;0.00;;;;;;;15.98;nan;100139.00;4942062;28;20040;-74
2023/07/26 07:52:46;;;;;;;0.00;0.00;;;;;;;16.33;nan;100144.84;4942452;28;20023;-74
2023/07/26 07:55:12;;;;;;;0.00;0.00;;;;;;;16.71;nan;100133.44;4937603;28;20031;-73
2023/07/26 07:57:37;;;;;;;0.00;0.00;;;;;;;;;;4956079;28;20534;-74
2023/07/26 08:00:03;;;;;;;0.00;0.00;;;;;;;17.58;nan;100135.84;4969878;28;20045;-74
2023/07/26 08:02:28;;;;;;;0.00;0.00;;;;;;;17.90;nan;100140.19;4968956;28;20054;-73
2023/07/26 08:04:54;;;;;;;0.00;0.00;;;;;;;18.22;nan;100140.88;4944692;29;20035;-75
2023/07/26 08:07:19;;;;;;;0.00;0.00;;;;;;;18.60;nan;100145.78;4947928;29;20126;-74
2023/07/26 08:09:45;;;;;;;0.00;0.00;;;;;;;18.95;nan;100106.13;4961537;28;20027;-75
2023/07/26 08:12:10;;;;;;;0.00;0.00;;;;;;;19.18;nan;100142.75;4958761;28;20046;-75
2023/07/26 08:14:36;;;;;;;0.00;0.00;;;;;;;19.23;nan;100150.06;4960762;28;20035;-71
2023/07/26 08:17:01;;;;;;;0.00;0.00;;;;;;;;;;4923259;28;20054;-73
2023/07/26 08:19:26;;;;;;;0.00;0.00;;;;;;;18.67;nan;100142.50;4960687;28;20082;-72
2023/07/26 08:21:52;;;;;;;0.00;0.00;;;;;;;18.64;nan;100130.13;4966069;28;20401;-72
2023/07/26 08:24:17;;;;;;;0.00;0.00;;;;;;;18.48;nan;100131.75;4941235;28;20059;-74
2023/07/26 08:26:43;;;;;;;0.00;0.00;;;;;;;18.24;nan;100144.16;4944465;28;20536;-73
2023/07/26 08:29:10;;;;;;;0.00;0.00;;;;;;;;;;4962063;28;20065;-73
2023/07/26 08:31:36;;;;;;;0.00;0.00;;;;;;;17.87;nan;100124.22;4930221;28;20373;-72
2023/07/26 08:34:01;;;;;;;0.00;0.00;;;;;;;;;;4955597;28;20034;-74
2023/07/26 08:36:26;;;;;;;0.00;0.00;;;;;;;17.87;nan;100128.94;4931244;28;20121;-71
2023/07/26 08:38:52;;;;;;;0.00;0.00;;;;;;;18.12;nan;100096.91;4950073;29;20277;-72
2023/07/26 08:41:17;;;;;;;0.00;0.00;;;;;;;18.41;nan;100125.91;4947037;28;20070;-72
2023/07/26 08:43:46;;;;;;;0.00;0.00;;;;;;;18.72;nan;100124.91;4944568;28;20022;-75
2023/07/26 08:46:13;;;;;;;0.00;0.00;;;;;;;;;;4971592;28;20027;-74
2023/07/26 08:48:39;;;;;;;0.00;0.00;;;;;;;19.33;nan;100131.13;4946900;28;20022;-72
2023/07/26 08:51:05;;;;;;;0.00;0.00;;;;;;;;;;4931068;29;20493;-73
2023/07/26 08:53:33;;;;;;;0.00;0.00;;;;;;;;;;4949542;28;20090;-73
2023/07/26 08:55:58;;;;;;;0.00;0.00;;;;;;;19.60;nan;100123.50;4959444;28;20453;-72
2023/07/26 08:58:25;;;;;;;0.00;0.00;;;;;;;19.64;nan;100118.06;4929423;28;20057;-73
2023/07/26 09:00:50;;;;;;;0.00;0.00;;;;;;;19.74;nan;100126.00;4938627;28;20494;-73
2023/07/26 09:03:17;;;;;;;0.00;0.00;;;;;;;19.95;nan;100120.53;4941976;28;20079;-73
2023/07/26 09:05:44;;;;;;;0.00;0.00;;;;;;;;;;4968968;28;20485;-73
2023/07/26 09:08:10;;;;;;;0.00;0.00;;;;;;;;;;4953682;28;20506;-72
2023/07/26 09:10:38;;;;;;;0.00;0.00;;;;;;;20.28;nan;100099.56;4963882;28;20034;-73
2023/07/26 09:13:11;;;;;;;0.00;0.00;;;;;;;20.22;nan;100112.81;4950454;28;20481;-72
2023/07/26 09:15:40;;;;;;;0.00;0.00;;;;;;;;;;4950571;29;20099;-72
2023/07/26 09:18:06;;;;;;;0.00;0.00;;;;;;;19.80;nan;100112.78;4934108;28;20370;-73
2023/07/26 09:20:33;;;;;;;0.00;0.00;;;;;;;19.88;nan;100098.88;4939697;29;20398;-73
2023/07/26 09:23:06;;;;;;;0.00;0.00;;;;;;;20.22;nan;100098.94;4915571;28;20134;-72
2023/07/26 09:25:34;;;;;;;0.00;0.00;;;;;;;20.52;nan;100107.19;4959932;28;20081;-74
2023/07/26 09:28:01;;;;;;;0.00;0.00;;;;;;;20.79;nan;100105.78;4953141;28;20544;-73
2023/07/26 09:30:28;;;;;;;0.00;0.00;;;;;;;20.78;nan;100100.59;4962704;28;20374;-72
2023/07/26 09:32:58;;;;;;;0.00;0.00;;;;;;;20.61;nan;100107.91;4955674;28;20027;-73
2023/07/26 09:35:23;;;;;;;0.00;0.00;;;;;;;20.54;nan;100096.53;4969969;28;20035;-73
2023/07/26 09:37:49;;;;;;;0.00;0.00;;;;;;;20.81;nan;100092.38;4949650;29;20347;-73
2023/07/26 09:40:15;;;;;;;0.00;0.00;;;;;;;21.10;nan;100085.84;4956345;28;20026;-72
2023/07/26 09:42:46;;;;;;;0.00;0.00;;;;;;;21.63;nan;100082.41;4970548;28;20023;-73
2023/07/26 09:45:18;;;;;;;0.00;0.00;;;;;;;22.21;nan;100086.91;4958544;28;20031;-74
2023/07/26 09:47:44;;;;;;;0.00;0.00;;;;;;;22.67;nan;100093.03;4952726;28;20042;-72
2023/07/26 09:50:35;;;;;;;0.00;0.00;;;;;;;22.94;nan;100090.53;4932769;28;21412;-74
2023/07/26 09:56:06;;;;;;;0.00;0.00;;;;;;;23.72;nan;100088.09;4939294;28;20090;-73
2023/07/26 09:58:48;;;;;;;0.00;0.00;;;;;;;23.68;nan;100092.78;4940094;28;20034;-71
2023/07/26 10:05:37;;;;;;;0.00;0.00;;;;;;;23.64;nan;100083.50;4954283;28;20053;-72
2023/07/26 10:07:55;;;;;;;0.00;0.00;;;;;;;24.01;nan;100085.97;4956692;28;20081;-74
2023/07/26 10:10:24;;;;;;;0.00;0.00;;;;;;;24.56;nan;100089.50;4941672;28;20450;-72
2023/07/26 10:12:52;;;;;;;0.00;0.00;;;;;;;;;;4952832;28;20027;-72
2023/07/26 10:15:41;;;;;;;0.00;0.00;;;;;;;25.51;nan;100080.81;4964934;28;20118;-73
2023/07/26 10:18:09;;;;;;;0.00;0.00;;;;;;;26.22;nan;100086.63;4951617;28;20031;-72
2023/07/26 10:20:48;;;;;;;0.00;0.00;;;;;;;26.51;nan;100103.81;4928618;28;20370;-72
2023/07/26 10:26:46;;;;;;;0.00;0.00;;;;;;;24.21;nan;99660.25;4949433;28;20049;-72
2023/07/26 10:29:14;;;;;;;0.00;0.00;;;;;;;26.82;nan;100093.34;4962637;28;20058;-72
2023/07/26 10:31:40;;;;;;;0.00;0.00;;;;;;;26.46;nan;100095.75;4962879;28;20489;-73
2023/07/26 10:34:05;;;;;;;0.00;0.00;;;;;;;26.27;nan;100083.50;4942740;29;20043;-72
2023/07/26 10:36:42;;;;;;;;;;;;;;;;;;;;;
2023/07/26 10:39:09;;;;;;;0.00;0.00;;;;;;;26.63;nan;100097.13;4951110;28;20027;-73
2023/07/26 10:41:50;;;;;;;0.00;0.00;;;;;;;26.76;nan;100100.50;4955583;28;20039;-72
2023/07/26 10:44:15;;;;;;;0.00;0.00;;;;;;;26.16;nan;100085.34;4968172;28;20081;-73
2023/07/26 10:46:48;;;;;;;0.00;0.00;;;;;;;25.47;nan;100096.75;4951329;28;20030;-71
2023/07/26 10:49:30;;;;;;;0.00;0.00;;;;;;;25.63;nan;100093.78;4968495;28;20077;-72
2023/07/26 10:52:04;;;;;;;0.00;0.00;;;;;;;25.79;nan;100025.22;4945800;28;20019;-72
2023/07/26 10:54:33;;;;;;;0.00;0.00;;;;;;;;;;4950256;28;20125;-72
2023/07/26 10:57:39;;;;;;;0.00;0.00;;;;;;;25.91;nan;100094.19;4959325;28;20614;-73
2023/07/26 11:00:09;;;;;;;0.00;0.00;;;;;;;26.18;nan;100102.63;4962291;28;20092;-72
2023/07/26 11:03:00;;;;;;;0.00;0.00;;;;;;;26.48;nan;100110.19;4945061;28;20019;-72
2023/07/26 11:05:29;;;;;;;0.00;0.00;;;;;;;26.70;nan;100099.25;4957104;28;20065;-72
2023/07/26 11:08:03;;;;;;;0.00;0.00;;;;;;;27.81;nan;100088.16;4950616;28;20027;-73
2023/07/26 11:10:30;;;;;;;;;;;;;;;29.23;nan;100102.34;4961220;28;20058;-73
2023/07/26 11:13:09;;;;;;;0.00;0.00;;;;;;;31.78;nan;100089.06;4940115;28;19917;-72
2023/07/26 11:15:49;;;;;;;0.00;0.00;;;;;;;34.16;nan;100093.19;4951476;28;20034;-73
2023/07/26 11:18:15;;;;;;;0.00;0.00;;;;;;;34.75;nan;100092.28;4964818;28;20501;-73
2023/07/26 11:20:56;;;;;;;0.00;0.00;;;;;;;34.17;nan;100070.06;4944478;28;20030;-72
2023/07/26 11:23:24;;;;;;;0.00;0.00;;;;;;;32.94;nan;100091.25;4963860;28;20047;-72
2023/07/26 11:26:01;;;;;;;0.00;0.00;;;;;;;31.15;nan;100081.56;4970614;28;20030;-72
2023/07/26 11:28:31;;;;;;;0.00;0.00;;;;;;;29.45;nan;100060.09;4953125;28;20026;-72
2023/07/26 11:30:58;;;;;;;0.00;0.00;;;;;;;;;;4974090;28;20038;-72
2023/07/26 11:33:34;;;;;;;0.00;0.00;;;;;;;;;;4933610;28;20047;-74
2023/07/26 11:36:01;;;;;;;0.00;0.00;;;;;;;27.38;nan;100042.94;4964206;28;20478;-72
2023/07/26 11:38:27;;;;;;;0.00;0.00;;;;;;;27.15;nan;100035.53;4948678;29;20033;-73
2023/07/26 11:40:55;;;;;;;0.00;0.00;;;;;;;28.43;nan;100044.28;4955504;28;20660;-72
2023/07/26 11:43:22;;;;;;;0.00;0.00;;;;;;;30.76;nan;100054.38;4952624;28;20054;-72
2023/07/26 11:45:47;;;;;;;0.00;0.00;;;;;;;31.92;nan;100047.72;4950632;28;20134;-72
2023/07/26 11:48:15;;;;;;;0.00;0.00;;;;;;;30.85;nan;100051.09;4949008;28;20118;-74
2023/07/26 11:50:43;;;;;;;0.00;0.00;;;;;;;;;;4958741;28;20050;-74
2023/07/26 11:53:12;;;;;;;0.00;0.00;;;;;;;28.36;nan;100039.47;4954790;28;20046;-72
2023/07/26 11:55:39;;;;;;;0.00;0.00;;;;;;;27.14;nan;100047.94;4943588;28;20081;-72
2023/07/26 11:58:07;;;;;;;0.00;0.00;;;;;;;26.00;nan;100011.91;4941180;28;20032;-77
2023/07/26 12:00:46;;;;;;;0.00;0.00;;;;;;;25.63;nan;100027.41;4933327;28;20064;-71
2023/07/26 12:03:12;;;;;;;0.00;0.00;;;;;;;25.54;nan;100036.09;4967612;28;20056;-72
2023/07/26 12:05:42;;;;;;;0.00;0.00;;;;;;;25.74;nan;100027.56;4962121;28;20057;-72
2023/07/26 12:08:08;;;;;;;0.00;0.00;;;;;;;;;;4952626;28;20166;-72
2023/07/26 12:10:37;;;;;;;0.00;0.00;;;;;;;25.60;nan;100040.16;4948582;28;20145;-71
2023/07/26 12:13:08;;;;;;;0.00;0.00;;;;;;;24.97;nan;100023.94;4972350;28;20023;-71
2023/07/26 12:16:00;;;;;;;0.00;0.00;;;;;;;24.42;nan;100026.94;4949789;28;20093;-74
2023/07/26 12:18:26;;;;;;;0.00;0.00;;;;;;;24.07;nan;100051.00;4959906;28;20035;-74
2023/07/26 12:21:01;;;;;;;0.00;0.00;;;;;;;23.90;nan;100029.09;4962698;28;20159;-72
2023/07/26 12:23:28;;;;;;;0.00;0.00;;;;;;;24.13;nan;100038.34;4937511;28;20104;-72
2023/07/26 12:25:56;;;;;;;0.00;0.00;;;;;;;;;;4941805;29;20498;-73